sensor_id;sensor_type;location;lat;lon;timestamp;P1;durP1;ratioP1;P2;durP2;ratioP2
59734;SDS011;64362;45.620;4.920;2023-02-15T00:01:22;8.00;;;6.63;;
59734;SDS011;64362;45.620;4.920;2023-02-15T00:03:48;9.20;;;6.75;;
59734;SDS011;64362;45.620;4.920;2023-02-15T00:06:14;8.00;;;6.30;;
59734;SDS011;64362;45.620;4.920;2023-02-15T00:08:39;8.02;;;6.13;;
59734;SDS011;64362;45.620;4.920;2023-02-15T00:11:09;6.93;;;5.93;;
59734;SDS011;64362;45.620;4.920;2023-02-15T00:13:36;8.68;;;6.65;;
59734;SDS011;64362;45.620;4.920;2023-02-15T00:16:04;10.00;;;6.70;;
59734;SDS011;64362;45.620;4.920;2023-02-15T00:18:31;7.03;;;6.32;;
59734;SDS011;64362;45.620;4.920;2023-02-15T00:20:57;9.18;;;7.13;;
59734;SDS011;64362;45.620;4.920;2023-02-15T00:23:23;7.32;;;6.13;;
59734;SDS011;64362;45.620;4.920;2023-02-15T00:25:48;8.07;;;6.40;;
59734;SDS011;64362;45.620;4.920;2023-02-15T00:28:15;8.38;;;6.38;;
59734;SDS011;64362;45.620;4.920;2023-02-15T00:30:40;8.15;;;6.32;;
59734;SDS011;64362;45.620;4.920;2023-02-15T00:33:06;7.82;;;5.97;;
59734;SDS011;64362;45.620;4.920;2023-02-15T00:35:32;7.97;;;6.45;;
59734;SDS011;64362;45.620;4.920;2023-02-15T00:37:57;8.25;;;6.75;;
59734;SDS011;64362;45.620;4.920;2023-02-15T00:40:23;7.53;;;6.38;;
59734;SDS011;64362;45.620;4.920;2023-02-15T00:42:48;7.57;;;6.45;;
59734;SDS011;64362;45.620;4.920;2023-02-15T00:45:14;7.07;;;6.35;;
59734;SDS011;64362;45.620;4.920;2023-02-15T00:47:39;8.05;;;6.15;;
59734;SDS011;64362;45.620;4.920;2023-02-15T00:50:05;7.13;;;5.95;;
59734;SDS011;64362;45.620;4.920;2023-02-15T00:52:31;8.60;;;6.93;;
59734;SDS011;64362;45.620;4.920;2023-02-15T00:54:56;8.43;;;6.38;;
59734;SDS011;64362;45.620;4.920;2023-02-15T00:57:22;7.43;;;6.63;;
59734;SDS011;64362;45.620;4.920;2023-02-15T00:59:47;8.07;;;6.50;;
59734;SDS011;64362;45.620;4.920;2023-02-15T01:02:13;7.25;;;6.22;;
59734;SDS011;64362;45.620;4.920;2023-02-15T01:04:38;8.38;;;6.65;;
59734;SDS011;64362;45.620;4.920;2023-02-15T01:07:04;7.38;;;6.47;;
59734;SDS011;64362;45.620;4.920;2023-02-15T01:09:32;9.93;;;7.00;;
59734;SDS011;64362;45.620;4.920;2023-02-15T01:11:57;7.25;;;6.22;;
59734;SDS011;64362;45.620;4.920;2023-02-15T01:14:25;7.72;;;6.13;;
59734;SDS011;64362;45.620;4.920;2023-02-15T01:16:50;7.97;;;6.53;;
59734;SDS011;64362;45.620;4.920;2023-02-15T01:19:16;8.68;;;6.63;;
59734;SDS011;64362;45.620;4.920;2023-02-15T01:21:41;8.45;;;6.90;;
59734;SDS011;64362;45.620;4.920;2023-02-15T01:24:14;7.30;;;6.60;;
59734;SDS011;64362;45.620;4.920;2023-02-15T01:26:40;8.13;;;6.43;;
59734;SDS011;64362;45.620;4.920;2023-02-15T01:29:05;8.48;;;6.55;;
59734;SDS011;64362;45.620;4.920;2023-02-15T01:31:31;7.25;;;6.45;;
59734;SDS011;64362;45.620;4.920;2023-02-15T01:33:56;8.98;;;6.88;;
59734;SDS011;64362;45.620;4.920;2023-02-15T01:36:22;8.48;;;6.93;;
59734;SDS011;64362;45.620;4.920;2023-02-15T01:38:47;9.13;;;6.40;;
59734;SDS011;64362;45.620;4.920;2023-02-15T01:41:14;8.02;;;7.03;;
59734;SDS011;64362;45.620;4.920;2023-02-15T01:46:55;6.95;;;5.97;;
59734;SDS011;64362;45.620;4.920;2023-02-15T01:49:20;7.60;;;6.28;;
59734;SDS011;64362;45.620;4.920;2023-02-15T01:51:50;7.38;;;6.32;;
59734;SDS011;64362;45.620;4.920;2023-02-15T01:56:49;8.82;;;6.72;;
59734;SDS011;64362;45.620;4.920;2023-02-15T01:59:17;7.28;;;6.13;;
59734;SDS011;64362;45.620;4.920;2023-02-15T02:01:45;7.55;;;6.32;;
59734;SDS011;64362;45.620;4.920;2023-02-15T02:04:18;8.73;;;6.68;;
59734;SDS011;64362;45.620;4.920;2023-02-15T02:06:49;9.20;;;6.65;;
59734;SDS011;64362;45.620;4.920;2023-02-15T02:09:15;7.10;;;6.40;;
59734;SDS011;64362;45.620;4.920;2023-02-15T02:11:41;7.88;;;7.05;;
59734;SDS011;64362;45.620;4.920;2023-02-15T02:14:11;8.38;;;6.85;;
59734;SDS011;64362;45.620;4.920;2023-02-15T02:33:07;8.07;;;6.70;;
59734;SDS011;64362;45.620;4.920;2023-02-15T02:41:17;7.68;;;6.85;;
59734;SDS011;64362;45.620;4.920;2023-02-15T02:43:59;8.07;;;7.03;;
59734;SDS011;64362;45.620;4.920;2023-02-15T02:46:32;7.63;;;6.82;;
59734;SDS011;64362;45.620;4.920;2023-02-15T02:49:02;7.45;;;6.65;;
59734;SDS011;64362;45.620;4.920;2023-02-15T02:51:29;9.00;;;7.10;;
59734;SDS011;64362;45.620;4.920;2023-02-15T02:53:57;7.85;;;6.78;;
59734;SDS011;64362;45.620;4.920;2023-02-15T02:56:29;7.95;;;6.97;;
59734;SDS011;64362;45.620;4.920;2023-02-15T02:59:01;8.02;;;6.78;;
59734;SDS011;64362;45.620;4.920;2023-02-15T03:01:41;7.80;;;6.78;;
59734;SDS011;64362;45.620;4.920;2023-02-15T03:04:10;7.88;;;6.97;;
59734;SDS011;64362;45.620;4.920;2023-02-15T03:06:50;8.30;;;6.82;;
59734;SDS011;64362;45.620;4.920;2023-02-15T03:09:21;7.95;;;6.93;;
59734;SDS011;64362;45.620;4.920;2023-02-15T03:12:00;8.93;;;7.20;;
59734;SDS011;64362;45.620;4.920;2023-02-15T03:14:27;8.20;;;6.80;;
59734;SDS011;64362;45.620;4.920;2023-02-15T03:16:53;9.00;;;6.88;;
59734;SDS011;64362;45.620;4.920;2023-02-15T03:19:21;8.00;;;7.07;;
59734;SDS011;64362;45.620;4.920;2023-02-15T03:21:50;7.80;;;6.88;;
59734;SDS011;64362;45.620;4.920;2023-02-15T03:24:32;8.32;;;7.50;;
59734;SDS011;64362;45.620;4.920;2023-02-15T03:27:06;9.43;;;7.50;;
59734;SDS011;64362;45.620;4.920;2023-02-15T03:29:34;8.93;;;7.43;;
59734;SDS011;64362;45.620;4.920;2023-02-15T03:32:00;8.73;;;7.05;;
59734;SDS011;64362;45.620;4.920;2023-02-15T03:34:28;8.25;;;7.30;;
59734;SDS011;64362;45.620;4.920;2023-02-15T03:37:10;9.55;;;7.03;;
59734;SDS011;64362;45.620;4.920;2023-02-15T03:39:44;9.68;;;7.47;;
59734;SDS011;64362;45.620;4.920;2023-02-15T03:42:14;8.15;;;7.32;;
59734;SDS011;64362;45.620;4.920;2023-02-15T03:47:25;9.18;;;7.90;;
59734;SDS011;64362;45.620;4.920;2023-02-15T03:50:02;8.60;;;7.32;;
59734;SDS011;64362;45.620;4.920;2023-02-15T03:57:41;7.67;;;6.87;;
59734;SDS011;64362;45.620;4.920;2023-02-15T04:00:25;10.05;;;7.95;;
59734;SDS011;64362;45.620;4.920;2023-02-15T04:03:23;8.45;;;7.55;;
59734;SDS011;64362;45.620;4.920;2023-02-15T04:05:54;8.65;;;7.00;;
59734;SDS011;64362;45.620;4.920;2023-02-15T04:08:19;9.20;;;7.72;;
59734;SDS011;64362;45.620;4.920;2023-02-15T04:10:45;8.95;;;7.93;;
59734;SDS011;64362;45.620;4.920;2023-02-15T04:13:24;8.70;;;7.53;;
59734;SDS011;64362;45.620;4.920;2023-02-15T04:18:40;9.32;;;8.13;;
59734;SDS011;64362;45.620;4.920;2023-02-15T04:21:26;8.95;;;7.03;;
59734;SDS011;64362;45.620;4.920;2023-02-15T04:24:11;8.70;;;7.68;;
59734;SDS011;64362;45.620;4.920;2023-02-15T04:26:56;8.70;;;7.80;;
59734;SDS011;64362;45.620;4.920;2023-02-15T04:29:22;10.70;;;7.93;;
59734;SDS011;64362;45.620;4.920;2023-02-15T04:31:48;12.20;;;7.82;;
59734;SDS011;64362;45.620;4.920;2023-02-15T04:34:14;11.93;;;8.02;;
59734;SDS011;64362;45.620;4.920;2023-02-15T04:36:40;12.05;;;7.93;;
59734;SDS011;64362;45.620;4.920;2023-02-15T04:39:06;13.15;;;8.63;;
59734;SDS011;64362;45.620;4.920;2023-02-15T04:41:32;12.55;;;8.15;;
59734;SDS011;64362;45.620;4.920;2023-02-15T04:43:58;11.65;;;8.23;;
59734;SDS011;64362;45.620;4.920;2023-02-15T04:46:25;11.15;;;8.07;;
59734;SDS011;64362;45.620;4.920;2023-02-15T04:48:51;10.60;;;8.40;;
59734;SDS011;64362;45.620;4.920;2023-02-15T04:51:16;11.27;;;8.48;;
59734;SDS011;64362;45.620;4.920;2023-02-15T04:53:42;14.07;;;8.70;;
59734;SDS011;64362;45.620;4.920;2023-02-15T04:56:07;10.57;;;8.60;;
59734;SDS011;64362;45.620;4.920;2023-02-15T04:58:33;12.10;;;8.13;;
59734;SDS011;64362;45.620;4.920;2023-02-15T05:00:58;11.27;;;8.60;;
59734;SDS011;64362;45.620;4.920;2023-02-15T05:03:24;10.95;;;8.43;;
59734;SDS011;64362;45.620;4.920;2023-02-15T05:05:50;12.27;;;8.85;;
59734;SDS011;64362;45.620;4.920;2023-02-15T05:08:15;9.07;;;8.05;;
59734;SDS011;64362;45.620;4.920;2023-02-15T05:10:41;10.10;;;8.55;;
59734;SDS011;64362;45.620;4.920;2023-02-15T05:13:07;11.93;;;8.80;;
59734;SDS011;64362;45.620;4.920;2023-02-15T05:15:32;13.05;;;8.55;;
59734;SDS011;64362;45.620;4.920;2023-02-15T05:17:58;11.65;;;8.60;;
59734;SDS011;64362;45.620;4.920;2023-02-15T05:20:23;11.00;;;8.77;;
59734;SDS011;64362;45.620;4.920;2023-02-15T05:22:52;11.48;;;8.50;;
59734;SDS011;64362;45.620;4.920;2023-02-15T05:25:18;11.38;;;8.73;;
59734;SDS011;64362;45.620;4.920;2023-02-15T05:28:02;10.38;;;8.20;;
59734;SDS011;64362;45.620;4.920;2023-02-15T05:30:50;10.68;;;7.78;;
59734;SDS011;64362;45.620;4.920;2023-02-15T05:33:16;8.95;;;8.05;;
59734;SDS011;64362;45.620;4.920;2023-02-15T05:35:42;10.45;;;7.60;;
59734;SDS011;64362;45.620;4.920;2023-02-15T05:38:07;11.00;;;8.15;;
59734;SDS011;64362;45.620;4.920;2023-02-15T05:40:33;9.30;;;7.75;;
59734;SDS011;64362;45.620;4.920;2023-02-15T05:42:58;10.73;;;7.45;;
59734;SDS011;64362;45.620;4.920;2023-02-15T05:45:24;10.90;;;8.50;;
59734;SDS011;64362;45.620;4.920;2023-02-15T05:47:49;11.57;;;8.18;;
59734;SDS011;64362;45.620;4.920;2023-02-15T05:50:15;11.18;;;8.18;;
59734;SDS011;64362;45.620;4.920;2023-02-15T05:52:41;9.68;;;8.00;;
59734;SDS011;64362;45.620;4.920;2023-02-15T05:55:06;11.57;;;8.23;;
59734;SDS011;64362;45.620;4.920;2023-02-15T05:57:34;9.48;;;8.00;;
59734;SDS011;64362;45.620;4.920;2023-02-15T06:00:00;8.68;;;7.75;;
59734;SDS011;64362;45.620;4.920;2023-02-15T06:02:26;9.77;;;8.77;;
59734;SDS011;64362;45.620;4.920;2023-02-15T06:04:51;12.55;;;8.90;;
59734;SDS011;64362;45.620;4.920;2023-02-15T06:07:16;9.57;;;7.63;;
59734;SDS011;64362;45.620;4.920;2023-02-15T06:09:42;11.25;;;8.50;;
59734;SDS011;64362;45.620;4.920;2023-02-15T06:12:07;11.15;;;8.85;;
59734;SDS011;64362;45.620;4.920;2023-02-15T06:14:33;12.52;;;9.10;;
59734;SDS011;64362;45.620;4.920;2023-02-15T06:16:58;10.73;;;8.80;;
59734;SDS011;64362;45.620;4.920;2023-02-15T06:19:24;10.25;;;8.35;;
59734;SDS011;64362;45.620;4.920;2023-02-15T06:21:49;12.05;;;9.35;;
59734;SDS011;64362;45.620;4.920;2023-02-15T06:24:15;11.63;;;9.35;;
59734;SDS011;64362;45.620;4.920;2023-02-15T06:26:40;11.07;;;8.73;;
59734;SDS011;64362;45.620;4.920;2023-02-15T06:29:06;11.30;;;9.40;;
59734;SDS011;64362;45.620;4.920;2023-02-15T06:31:31;10.32;;;9.27;;
59734;SDS011;64362;45.620;4.920;2023-02-15T06:33:57;10.38;;;9.35;;
59734;SDS011;64362;45.620;4.920;2023-02-15T06:36:29;11.88;;;9.13;;
59734;SDS011;64362;45.620;4.920;2023-02-15T06:38:55;10.88;;;9.45;;
59734;SDS011;64362;45.620;4.920;2023-02-15T06:41:21;11.65;;;9.55;;
59734;SDS011;64362;45.620;4.920;2023-02-15T06:43:46;11.77;;;9.40;;
59734;SDS011;64362;45.620;4.920;2023-02-15T06:46:12;10.73;;;9.57;;
59734;SDS011;64362;45.620;4.920;2023-02-15T06:48:37;10.85;;;9.02;;
59734;SDS011;64362;45.620;4.920;2023-02-15T06:51:03;11.20;;;9.18;;
59734;SDS011;64362;45.620;4.920;2023-02-15T06:53:28;12.35;;;9.77;;
59734;SDS011;64362;45.620;4.920;2023-02-15T06:55:59;12.02;;;9.70;;
59734;SDS011;64362;45.620;4.920;2023-02-15T06:58:37;11.90;;;9.77;;
59734;SDS011;64362;45.620;4.920;2023-02-15T07:01:03;11.80;;;10.07;;
59734;SDS011;64362;45.620;4.920;2023-02-15T07:03:29;11.77;;;9.75;;
59734;SDS011;64362;45.620;4.920;2023-02-15T07:05:55;11.98;;;10.20;;
59734;SDS011;64362;45.620;4.920;2023-02-15T07:08:21;13.27;;;10.73;;
59734;SDS011;64362;45.620;4.920;2023-02-15T07:10:48;13.20;;;10.80;;
59734;SDS011;64362;45.620;4.920;2023-02-15T07:13:14;12.23;;;9.65;;
59734;SDS011;64362;45.620;4.920;2023-02-15T07:15:40;11.38;;;9.52;;
59734;SDS011;64362;45.620;4.920;2023-02-15T07:18:06;11.23;;;9.98;;
59734;SDS011;64362;45.620;4.920;2023-02-15T07:20:31;11.20;;;10.00;;
59734;SDS011;64362;45.620;4.920;2023-02-15T07:22:59;11.02;;;9.23;;
59734;SDS011;64362;45.620;4.920;2023-02-15T07:25:25;13.57;;;10.65;;
59734;SDS011;64362;45.620;4.920;2023-02-15T07:27:57;14.52;;;11.23;;
59734;SDS011;64362;45.620;4.920;2023-02-15T07:30:23;13.45;;;10.93;;
59734;SDS011;64362;45.620;4.920;2023-02-15T07:32:48;14.40;;;10.98;;
59734;SDS011;64362;45.620;4.920;2023-02-15T07:35:32;12.93;;;10.57;;
59734;SDS011;64362;45.620;4.920;2023-02-15T07:37:58;13.23;;;10.48;;
59734;SDS011;64362;45.620;4.920;2023-02-15T07:40:24;15.38;;;10.63;;
59734;SDS011;64362;45.620;4.920;2023-02-15T07:42:50;12.75;;;10.52;;
59734;SDS011;64362;45.620;4.920;2023-02-15T07:45:18;13.48;;;10.82;;
59734;SDS011;64362;45.620;4.920;2023-02-15T07:47:44;14.65;;;10.10;;
59734;SDS011;64362;45.620;4.920;2023-02-15T07:50:09;11.80;;;9.45;;
59734;SDS011;64362;45.620;4.920;2023-02-15T07:52:34;11.70;;;10.10;;
59734;SDS011;64362;45.620;4.920;2023-02-15T07:55:00;11.07;;;9.38;;
59734;SDS011;64362;45.620;4.920;2023-02-15T07:57:25;13.65;;;9.70;;
59734;SDS011;64362;45.620;4.920;2023-02-15T07:59:51;11.13;;;8.73;;
59734;SDS011;64362;45.620;4.920;2023-02-15T08:02:16;12.40;;;9.35;;
59734;SDS011;64362;45.620;4.920;2023-02-15T08:04:42;13.85;;;9.88;;
59734;SDS011;64362;45.620;4.920;2023-02-15T08:07:07;11.55;;;9.55;;
59734;SDS011;64362;45.620;4.920;2023-02-15T08:09:33;11.88;;;8.77;;
59734;SDS011;64362;45.620;4.920;2023-02-15T08:11:58;10.60;;;8.80;;
59734;SDS011;64362;45.620;4.920;2023-02-15T08:14:24;12.10;;;9.63;;
59734;SDS011;64362;45.620;4.920;2023-02-15T08:16:50;12.80;;;9.60;;
59734;SDS011;64362;45.620;4.920;2023-02-15T08:19:21;10.80;;;8.55;;
59734;SDS011;64362;45.620;4.920;2023-02-15T08:21:50;12.50;;;9.52;;
59734;SDS011;64362;45.620;4.920;2023-02-15T08:24:25;11.27;;;10.07;;
59734;SDS011;64362;45.620;4.920;2023-02-15T08:26:52;10.60;;;9.13;;
59734;SDS011;64362;45.620;4.920;2023-02-15T08:29:18;11.27;;;9.98;;
59734;SDS011;64362;45.620;4.920;2023-02-15T08:31:47;10.30;;;8.90;;
59734;SDS011;64362;45.620;4.920;2023-02-15T08:34:14;10.98;;;9.45;;
59734;SDS011;64362;45.620;4.920;2023-02-15T08:36:41;11.63;;;9.60;;
59734;SDS011;64362;45.620;4.920;2023-02-15T08:39:07;11.68;;;9.15;;
59734;SDS011;64362;45.620;4.920;2023-02-15T08:41:36;11.63;;;9.45;;
59734;SDS011;64362;45.620;4.920;2023-02-15T08:44:03;10.77;;;9.32;;
59734;SDS011;64362;45.620;4.920;2023-02-15T08:46:31;12.00;;;10.15;;
59734;SDS011;64362;45.620;4.920;2023-02-15T08:49:01;9.80;;;8.80;;
59734;SDS011;64362;45.620;4.920;2023-02-15T08:51:28;11.05;;;9.65;;
59734;SDS011;64362;45.620;4.920;2023-02-15T08:53:56;10.68;;;9.27;;
59734;SDS011;64362;45.620;4.920;2023-02-15T08:56:24;10.73;;;9.40;;
59734;SDS011;64362;45.620;4.920;2023-02-15T08:58:51;10.63;;;9.48;;
59734;SDS011;64362;45.620;4.920;2023-02-15T09:01:17;11.65;;;10.10;;
59734;SDS011;64362;45.620;4.920;2023-02-15T09:03:51;10.65;;;9.18;;
59734;SDS011;64362;45.620;4.920;2023-02-15T09:06:20;11.15;;;9.63;;
59734;SDS011;64362;45.620;4.920;2023-02-15T09:08:46;11.07;;;9.50;;
59734;SDS011;64362;45.620;4.920;2023-02-15T09:11:18;10.88;;;9.40;;
59734;SDS011;64362;45.620;4.920;2023-02-15T09:13:56;10.07;;;8.38;;
59734;SDS011;64362;45.620;4.920;2023-02-15T09:16:24;10.60;;;9.32;;
59734;SDS011;64362;45.620;4.920;2023-02-15T09:18:51;11.15;;;9.45;;
59734;SDS011;64362;45.620;4.920;2023-02-15T09:21:17;10.68;;;9.23;;
59734;SDS011;64362;45.620;4.920;2023-02-15T09:23:45;11.20;;;9.63;;
59734;SDS011;64362;45.620;4.920;2023-02-15T09:26:13;11.63;;;9.75;;
59734;SDS011;64362;45.620;4.920;2023-02-15T09:28:40;10.75;;;9.65;;
59734;SDS011;64362;45.620;4.920;2023-02-15T09:33:42;10.50;;;9.35;;
59734;SDS011;64362;45.620;4.920;2023-02-15T09:36:16;10.48;;;9.30;;
59734;SDS011;64362;45.620;4.920;2023-02-15T09:39:23;10.48;;;9.02;;
59734;SDS011;64362;45.620;4.920;2023-02-15T09:57:53;10.95;;;8.75;;
59734;SDS011;64362;45.620;4.920;2023-02-15T10:14:05;9.80;;;8.35;;
59734;SDS011;64362;45.620;4.920;2023-02-15T10:25:22;10.40;;;8.50;;
59734;SDS011;64362;45.620;4.920;2023-02-15T10:30:43;9.80;;;8.80;;
59734;SDS011;64362;45.620;4.920;2023-02-15T11:04:25;10.80;;;8.40;;
59734;SDS011;64362;45.620;4.920;2023-02-15T11:07:24;9.00;;;7.95;;
59734;SDS011;64362;45.620;4.920;2023-02-15T11:09:54;9.95;;;8.95;;
59734;SDS011;64362;45.620;4.920;2023-02-15T11:12:26;9.73;;;8.18;;
59734;SDS011;64362;45.620;4.920;2023-02-15T11:18:00;9.70;;;8.70;;
59734;SDS011;64362;45.620;4.920;2023-02-15T11:22:54;8.25;;;7.43;;
59734;SDS011;64362;45.620;4.920;2023-02-15T11:25:22;9.52;;;7.93;;
59734;SDS011;64362;45.620;4.920;2023-02-15T11:27:50;8.57;;;7.70;;
59734;SDS011;64362;45.620;4.920;2023-02-15T11:30:21;8.82;;;7.90;;
59734;SDS011;64362;45.620;4.920;2023-02-15T11:32:49;9.05;;;8.02;;
59734;SDS011;64362;45.620;4.920;2023-02-15T11:35:40;10.73;;;8.93;;
59734;SDS011;64362;45.620;4.920;2023-02-15T11:38:06;9.57;;;7.90;;
59734;SDS011;64362;45.620;4.920;2023-02-15T11:40:43;9.07;;;8.00;;
59734;SDS011;64362;45.620;4.920;2023-02-15T11:43:24;8.82;;;7.93;;
59734;SDS011;64362;45.620;4.920;2023-02-15T11:46:03;8.32;;;7.55;;
59734;SDS011;64362;45.620;4.920;2023-02-15T11:48:29;8.70;;;7.60;;
59734;SDS011;64362;45.620;4.920;2023-02-15T11:50:55;8.30;;;7.25;;
59734;SDS011;64362;45.620;4.920;2023-02-15T11:53:22;8.30;;;7.32;;
59734;SDS011;64362;45.620;4.920;2023-02-15T11:55:53;8.60;;;7.72;;
59734;SDS011;64362;45.620;4.920;2023-02-15T11:58:27;8.55;;;7.65;;
59734;SDS011;64362;45.620;4.920;2023-02-15T12:06:37;8.75;;;7.68;;
59734;SDS011;64362;45.620;4.920;2023-02-15T12:11:50;8.48;;;7.55;;
59734;SDS011;64362;45.620;4.920;2023-02-15T12:14:16;8.43;;;7.53;;
59734;SDS011;64362;45.620;4.920;2023-02-15T12:16:43;8.30;;;7.38;;
59734;SDS011;64362;45.620;4.920;2023-02-15T12:19:38;8.32;;;7.53;;
59734;SDS011;64362;45.620;4.920;2023-02-15T12:22:21;9.00;;;7.55;;
59734;SDS011;64362;45.620;4.920;2023-02-15T12:24:47;7.90;;;7.10;;
59734;SDS011;64362;45.620;4.920;2023-02-15T12:27:14;8.48;;;7.68;;
59734;SDS011;64362;45.620;4.920;2023-02-15T12:29:46;9.25;;;7.80;;
59734;SDS011;64362;45.620;4.920;2023-02-15T12:32:36;9.02;;;7.63;;
59734;SDS011;64362;45.620;4.920;2023-02-15T12:35:13;8.95;;;7.50;;
59734;SDS011;64362;45.620;4.920;2023-02-15T12:37:51;7.85;;;7.03;;
59734;SDS011;64362;45.620;4.920;2023-02-15T12:40:20;8.82;;;7.18;;
59734;SDS011;64362;45.620;4.920;2023-02-15T12:42:51;8.75;;;7.57;;
59734;SDS011;64362;45.620;4.920;2023-02-15T12:47:45;8.20;;;7.20;;
59734;SDS011;64362;45.620;4.920;2023-02-15T12:50:15;7.82;;;7.03;;
59734;SDS011;64362;45.620;4.920;2023-02-15T12:52:47;8.88;;;7.60;;
59734;SDS011;64362;45.620;4.920;2023-02-15T12:55:19;10.35;;;8.18;;
59734;SDS011;64362;45.620;4.920;2023-02-15T12:58:04;8.40;;;7.50;;
59734;SDS011;64362;45.620;4.920;2023-02-15T13:00:31;8.45;;;7.55;;
59734;SDS011;64362;45.620;4.920;2023-02-15T13:02:57;9.18;;;7.35;;
59734;SDS011;64362;45.620;4.920;2023-02-15T13:07:59;9.32;;;7.97;;
59734;SDS011;64362;45.620;4.920;2023-02-15T13:13:25;9.35;;;7.95;;
59734;SDS011;64362;45.620;4.920;2023-02-15T13:15:53;8.13;;;6.78;;
59734;SDS011;64362;45.620;4.920;2023-02-15T13:20:55;9.07;;;7.60;;
59734;SDS011;64362;45.620;4.920;2023-02-15T13:23:24;7.50;;;6.70;;
59734;SDS011;64362;45.620;4.920;2023-02-15T13:25:55;8.57;;;7.32;;
59734;SDS011;64362;45.620;4.920;2023-02-15T13:28:23;8.45;;;7.10;;
59734;SDS011;64362;45.620;4.920;2023-02-15T13:30:52;8.13;;;7.32;;
59734;SDS011;64362;45.620;4.920;2023-02-15T13:33:23;8.00;;;7.18;;
59734;SDS011;64362;45.620;4.920;2023-02-15T13:41:20;8.20;;;7.30;;
59734;SDS011;64362;45.620;4.920;2023-02-15T13:44:16;7.82;;;7.03;;
59734;SDS011;64362;45.620;4.920;2023-02-15T13:46:55;8.52;;;7.57;;
59734;SDS011;64362;45.620;4.920;2023-02-15T13:52:27;10.90;;;7.23;;
59734;SDS011;64362;45.620;4.920;2023-02-15T14:16:33;7.95;;;7.05;;
59734;SDS011;64362;45.620;4.920;2023-02-15T14:29:53;7.85;;;6.65;;
59734;SDS011;64362;45.620;4.920;2023-02-15T14:35:01;8.38;;;6.63;;
59734;SDS011;64362;45.620;4.920;2023-02-15T14:37:31;8.57;;;6.75;;
59734;SDS011;64362;45.620;4.920;2023-02-15T14:40:17;7.72;;;6.90;;
59734;SDS011;64362;45.620;4.920;2023-02-15T14:43:08;6.55;;;5.88;;
59734;SDS011;64362;45.620;4.920;2023-02-15T14:45:38;6.85;;;5.85;;
59734;SDS011;64362;45.620;4.920;2023-02-15T14:50:49;9.10;;;6.65;;
59734;SDS011;64362;45.620;4.920;2023-02-15T14:55:40;7.60;;;6.80;;
59734;SDS011;64362;45.620;4.920;2023-02-15T14:58:09;7.78;;;6.50;;
59734;SDS011;64362;45.620;4.920;2023-02-15T15:00:37;8.15;;;6.78;;
59734;SDS011;64362;45.620;4.920;2023-02-15T15:03:25;7.63;;;6.20;;
59734;SDS011;64362;45.620;4.920;2023-02-15T15:05:51;7.72;;;6.63;;
59734;SDS011;64362;45.620;4.920;2023-02-15T15:13:55;7.45;;;6.10;;
59734;SDS011;64362;45.620;4.920;2023-02-15T15:16:46;7.50;;;6.43;;
59734;SDS011;64362;45.620;4.920;2023-02-15T15:19:56;6.97;;;6.28;;
59734;SDS011;64362;45.620;4.920;2023-02-15T15:22:18;8.45;;;6.70;;
59734;SDS011;64362;45.620;4.920;2023-02-15T15:46:49;7.05;;;6.22;;
59734;SDS011;64362;45.620;4.920;2023-02-15T15:49:19;6.15;;;5.30;;
59734;SDS011;64362;45.620;4.920;2023-02-15T15:51:45;7.05;;;5.97;;
59734;SDS011;64362;45.620;4.920;2023-02-15T15:54:21;7.57;;;5.65;;
59734;SDS011;64362;45.620;4.920;2023-02-15T15:56:53;6.30;;;5.65;;
59734;SDS011;64362;45.620;4.920;2023-02-15T15:59:24;6.22;;;5.47;;
59734;SDS011;64362;45.620;4.920;2023-02-15T16:01:52;7.22;;;5.97;;
59734;SDS011;64362;45.620;4.920;2023-02-15T16:04:27;6.88;;;5.82;;
59734;SDS011;64362;45.620;4.920;2023-02-15T16:06:57;6.22;;;5.63;;
59734;SDS011;64362;45.620;4.920;2023-02-15T16:09:25;6.70;;;5.85;;
59734;SDS011;64362;45.620;4.920;2023-02-15T16:11:52;7.25;;;5.93;;
59734;SDS011;64362;45.620;4.920;2023-02-15T16:14:32;6.22;;;5.63;;
59734;SDS011;64362;45.620;4.920;2023-02-15T16:17:01;7.18;;;5.72;;
59734;SDS011;64362;45.620;4.920;2023-02-15T16:19:38;7.80;;;6.03;;
59734;SDS011;64362;45.620;4.920;2023-02-15T16:22:07;6.60;;;5.60;;
59734;SDS011;64362;45.620;4.920;2023-02-15T16:27:52;6.68;;;5.93;;
59734;SDS011;64362;45.620;4.920;2023-02-15T16:32:47;7.05;;;5.72;;
59734;SDS011;64362;45.620;4.920;2023-02-15T16:35:14;6.82;;;5.75;;
59734;SDS011;64362;45.620;4.920;2023-02-15T16:37:43;8.25;;;6.22;;
59734;SDS011;64362;45.620;4.920;2023-02-15T16:40:31;8.40;;;6.75;;
59734;SDS011;64362;45.620;4.920;2023-02-15T16:43:04;5.97;;;5.18;;
59734;SDS011;64362;45.620;4.920;2023-02-15T16:45:34;6.40;;;5.72;;
59734;SDS011;64362;45.620;4.920;2023-02-15T16:48:04;6.00;;;5.40;;
59734;SDS011;64362;45.620;4.920;2023-02-15T16:50:33;6.53;;;5.80;;
59734;SDS011;64362;45.620;4.920;2023-02-15T16:53:00;6.22;;;5.57;;
59734;SDS011;64362;45.620;4.920;2023-02-15T16:55:27;7.43;;;5.72;;
59734;SDS011;64362;45.620;4.920;2023-02-15T16:58:04;7.35;;;5.40;;
59734;SDS011;64362;45.620;4.920;2023-02-15T17:00:31;6.10;;;5.40;;
59734;SDS011;64362;45.620;4.920;2023-02-15T17:03:00;7.40;;;5.72;;
59734;SDS011;64362;45.620;4.920;2023-02-15T17:05:32;7.90;;;5.45;;
59734;SDS011;64362;45.620;4.920;2023-02-15T17:13:02;8.05;;;5.53;;
59734;SDS011;64362;45.620;4.920;2023-02-15T17:18:03;9.05;;;5.90;;
59734;SDS011;64362;45.620;4.920;2023-02-15T17:20:30;7.05;;;5.60;;
59734;SDS011;64362;45.620;4.920;2023-02-15T17:22:56;7.75;;;5.88;;
59734;SDS011;64362;45.620;4.920;2023-02-15T17:25:26;6.82;;;5.53;;
59734;SDS011;64362;45.620;4.920;2023-02-15T17:27:57;7.63;;;5.47;;
59734;SDS011;64362;45.620;4.920;2023-02-15T17:30:28;6.10;;;5.50;;
59734;SDS011;64362;45.620;4.920;2023-02-15T17:32:58;6.15;;;5.55;;
59734;SDS011;64362;45.620;4.920;2023-02-15T17:35:29;6.35;;;5.32;;
59734;SDS011;64362;45.620;4.920;2023-02-15T17:38:17;7.00;;;5.50;;
59734;SDS011;64362;45.620;4.920;2023-02-15T17:40:44;6.68;;;5.82;;
59734;SDS011;64362;45.620;4.920;2023-02-15T17:43:09;8.27;;;6.03;;
59734;SDS011;64362;45.620;4.920;2023-02-15T17:45:35;8.98;;;6.25;;
59734;SDS011;64362;45.620;4.920;2023-02-15T17:48:05;7.85;;;5.60;;
59734;SDS011;64362;45.620;4.920;2023-02-15T17:50:31;11.95;;;6.18;;
59734;SDS011;64362;45.620;4.920;2023-02-15T17:52:57;11.73;;;6.70;;
59734;SDS011;64362;45.620;4.920;2023-02-15T17:55:25;10.68;;;6.03;;
59734;SDS011;64362;45.620;4.920;2023-02-15T17:58:00;9.90;;;6.18;;
59734;SDS011;64362;45.620;4.920;2023-02-15T18:00:28;25.20;;;16.52;;
59734;SDS011;64362;45.620;4.920;2023-02-15T18:03:13;118.35;;;94.35;;
59734;SDS011;64362;45.620;4.920;2023-02-15T18:05:57;280.92;;;224.35;;
59734;SDS011;64362;45.620;4.920;2023-02-15T18:08:41;327.02;;;269.17;;
59734;SDS011;64362;45.620;4.920;2023-02-15T18:11:26;287.90;;;234.02;;
59734;SDS011;64362;45.620;4.920;2023-02-15T18:14:07;219.40;;;169.05;;
59734;SDS011;64362;45.620;4.920;2023-02-15T18:16:35;179.75;;;137.05;;
59734;SDS011;64362;45.620;4.920;2023-02-15T18:19:03;173.65;;;127.60;;
59734;SDS011;64362;45.620;4.920;2023-02-15T18:21:30;165.75;;;126.32;;
59734;SDS011;64362;45.620;4.920;2023-02-15T18:23:56;157.68;;;117.65;;
59734;SDS011;64362;45.620;4.920;2023-02-15T18:26:22;146.32;;;112.88;;
59734;SDS011;64362;45.620;4.920;2023-02-15T18:28:49;140.88;;;104.60;;
59734;SDS011;64362;45.620;4.920;2023-02-15T18:31:16;136.65;;;101.38;;
59734;SDS011;64362;45.620;4.920;2023-02-15T18:33:44;131.55;;;99.50;;
59734;SDS011;64362;45.620;4.920;2023-02-15T18:36:13;120.82;;;92.82;;
59734;SDS011;64362;45.620;4.920;2023-02-15T18:38:54;108.75;;;83.78;;
59734;SDS011;64362;45.620;4.920;2023-02-15T18:41:20;103.13;;;78.32;;
59734;SDS011;64362;45.620;4.920;2023-02-15T18:43:46;96.63;;;74.50;;